sensor_id;sensor_type;location;lat;lon;timestamp;temperature;humidity
64888;DHT22;51386;53.082;8.816;2023-02-28T00:01:11;8.10;56.90
64888;DHT22;51386;53.082;8.816;2023-02-28T00:03:39;8.10;56.70
64888;DHT22;51386;53.082;8.816;2023-02-28T00:06:08;8.00;56.60
64888;DHT22;51386;53.082;8.816;2023-02-28T00:08:37;8.10;56.50
64888;DHT22;51386;53.082;8.816;2023-02-28T00:11:07;8.10;56.20
64888;DHT22;51386;53.082;8.816;2023-02-28T00:13:37;8.00;56.30
64888;DHT22;51386;53.082;8.816;2023-02-28T00:16:09;8.00;56.10
64888;DHT22;51386;53.082;8.816;2023-02-28T00:18:38;8.00;56.30
64888;DHT22;51386;53.082;8.816;2023-02-28T00:21:05;8.00;56.30
64888;DHT22;51386;53.082;8.816;2023-02-28T00:23:33;8.00;56.20
64888;DHT22;51386;53.082;8.816;2023-02-28T00:26:01;8.00;56.30
64888;DHT22;51386;53.082;8.816;2023-02-28T00:28:28;8.10;56.50
64888;DHT22;51386;53.082;8.816;2023-02-28T00:30:55;8.10;56.20
64888;DHT22;51386;53.082;8.816;2023-02-28T00:33:24;8.10;56.80
64888;DHT22;51386;53.082;8.816;2023-02-28T00:35:51;8.20;56.20
64888;DHT22;51386;53.082;8.816;2023-02-28T00:38:18;8.20;56.00
64888;DHT22;51386;53.082;8.816;2023-02-28T00:40:45;8.20;55.80
64888;DHT22;51386;53.082;8.816;2023-02-28T00:43:13;8.20;55.50
64888;DHT22;51386;53.082;8.816;2023-02-28T00:45:40;8.10;55.50
64888;DHT22;51386;53.082;8.816;2023-02-28T00:48:07;8.10;55.50
64888;DHT22;51386;53.082;8.816;2023-02-28T00:50:34;8.00;55.70
64888;DHT22;51386;53.082;8.816;2023-02-28T00:53:01;7.90;55.70
64888;DHT22;51386;53.082;8.816;2023-02-28T00:55:28;7.90;56.00
64888;DHT22;51386;53.082;8.816;2023-02-28T00:57:54;7.80;56.20
64888;DHT22;51386;53.082;8.816;2023-02-28T01:00:23;7.90;56.60
64888;DHT22;51386;53.082;8.816;2023-02-28T01:02:50;7.90;56.50
64888;DHT22;51386;53.082;8.816;2023-02-28T01:05:17;7.90;56.30
64888;DHT22;51386;53.082;8.816;2023-02-28T01:07:44;7.90;56.10
64888;DHT22;51386;53.082;8.816;2023-02-28T01:10:11;7.80;56.10
64888;DHT22;51386;53.082;8.816;2023-02-28T01:12:38;7.80;56.20
64888;DHT22;51386;53.082;8.816;2023-02-28T01:15:06;7.70;56.30
64888;DHT22;51386;53.082;8.816;2023-02-28T01:17:35;7.70;56.90
64888;DHT22;51386;53.082;8.816;2023-02-28T01:20:03;7.70;57.00
64888;DHT22;51386;53.082;8.816;2023-02-28T01:22:30;7.70;57.50
64888;DHT22;51386;53.082;8.816;2023-02-28T01:24:57;7.70;57.30
64888;DHT22;51386;53.082;8.816;2023-02-28T01:27:24;7.70;57.00
64888;DHT22;51386;53.082;8.816;2023-02-28T01:29:53;7.70;56.80
64888;DHT22;51386;53.082;8.816;2023-02-28T01:32:20;7.70;57.00
64888;DHT22;51386;53.082;8.816;2023-02-28T01:34:48;7.70;56.80
64888;DHT22;51386;53.082;8.816;2023-02-28T01:37:15;7.70;56.60
64888;DHT22;51386;53.082;8.816;2023-02-28T01:39:42;7.70;56.50
64888;DHT22;51386;53.082;8.816;2023-02-28T01:42:09;7.70;56.50
64888;DHT22;51386;53.082;8.816;2023-02-28T01:44:58;7.70;56.80
64888;DHT22;51386;53.082;8.816;2023-02-28T01:47:32;7.70;56.50
64888;DHT22;51386;53.082;8.816;2023-02-28T01:50:07;7.60;56.30
64888;DHT22;51386;53.082;8.816;2023-02-28T01:52:39;7.60;56.70
64888;DHT22;51386;53.082;8.816;2023-02-28T01:55:08;7.60;57.00
64888;DHT22;51386;53.082;8.816;2023-02-28T01:57:41;7.60;56.80
64888;DHT22;51386;53.082;8.816;2023-02-28T02:00:14;7.60;56.80
64888;DHT22;51386;53.082;8.816;2023-02-28T02:02:46;7.60;56.90
64888;DHT22;51386;53.082;8.816;2023-02-28T02:05:20;7.60;56.90
64888;DHT22;51386;53.082;8.816;2023-02-28T02:07:50;7.60;56.70
64888;DHT22;51386;53.082;8.816;2023-02-28T02:10:25;7.60;56.40
64888;DHT22;51386;53.082;8.816;2023-02-28T02:13:08;7.60;55.90
64888;DHT22;51386;53.082;8.816;2023-02-28T02:15:54;7.50;55.80
64888;DHT22;51386;53.082;8.816;2023-02-28T02:18:33;7.50;55.70
64888;DHT22;51386;53.082;8.816;2023-02-28T02:24:48;7.40;55.50
64888;DHT22;51386;53.082;8.816;2023-02-28T02:27:33;7.30;55.30
64888;DHT22;51386;53.082;8.816;2023-02-28T02:30:44;7.10;55.30
64888;DHT22;51386;53.082;8.816;2023-02-28T02:33:32;7.10;55.50
64888;DHT22;51386;53.082;8.816;2023-02-28T02:36:31;7.00;55.80
64888;DHT22;51386;53.082;8.816;2023-02-28T02:39:05;6.90;55.80
64888;DHT22;51386;53.082;8.816;2023-02-28T02:41:43;6.90;56.10
64888;DHT22;51386;53.082;8.816;2023-02-28T02:44:19;6.90;56.00
64888;DHT22;51386;53.082;8.816;2023-02-28T02:46:51;6.90;56.00
64888;DHT22;51386;53.082;8.816;2023-02-28T02:49:26;6.80;55.90
64888;DHT22;51386;53.082;8.816;2023-02-28T02:52:01;6.80;56.10
64888;DHT22;51386;53.082;8.816;2023-02-28T02:54:34;6.80;56.10
64888;DHT22;51386;53.082;8.816;2023-02-28T02:57:06;6.70;56.40
64888;DHT22;51386;53.082;8.816;2023-02-28T02:59:35;6.70;56.50
64888;DHT22;51386;53.082;8.816;2023-02-28T03:02:07;6.70;56.70
64888;DHT22;51386;53.082;8.816;2023-02-28T03:04:42;6.70;56.70
64888;DHT22;51386;53.082;8.816;2023-02-28T03:07:11;6.70;56.80
64888;DHT22;51386;53.082;8.816;2023-02-28T03:09:38;6.60;57.00
64888;DHT22;51386;53.082;8.816;2023-02-28T03:12:09;6.60;57.50
64888;DHT22;51386;53.082;8.816;2023-02-28T03:14:54;6.60;57.10
64888;DHT22;51386;53.082;8.816;2023-02-28T03:17:50;6.60;57.20
64888;DHT22;51386;53.082;8.816;2023-02-28T03:20:35;6.70;57.00
64888;DHT22;51386;53.082;8.816;2023-02-28T03:23:14;6.70;57.40
64888;DHT22;51386;53.082;8.816;2023-02-28T03:25:54;6.70;57.20
64888;DHT22;51386;53.082;8.816;2023-02-28T03:28:31;6.80;57.40
64888;DHT22;51386;53.082;8.816;2023-02-28T03:31:14;6.80;57.10
64888;DHT22;51386;53.082;8.816;2023-02-28T03:33:49;6.80;56.70
64888;DHT22;51386;53.082;8.816;2023-02-28T03:36:25;6.70;56.60
64888;DHT22;51386;53.082;8.816;2023-02-28T03:38:58;6.70;56.80
64888;DHT22;51386;53.082;8.816;2023-02-28T03:41:35;6.60;56.50
64888;DHT22;51386;53.082;8.816;2023-02-28T03:44:09;6.50;56.50
64888;DHT22;51386;53.082;8.816;2023-02-28T03:46:45;6.40;56.80
64888;DHT22;51386;53.082;8.816;2023-02-28T03:49:21;6.30;56.80
64888;DHT22;51386;53.082;8.816;2023-02-28T03:51:54;6.30;56.90
64888;DHT22;51386;53.082;8.816;2023-02-28T03:54:29;6.20;57.00
64888;DHT22;51386;53.082;8.816;2023-02-28T03:57:04;6.10;56.90
64888;DHT22;51386;53.082;8.816;2023-02-28T03:59:39;6.10;57.20
64888;DHT22;51386;53.082;8.816;2023-02-28T04:02:10;6.00;57.20
64888;DHT22;51386;53.082;8.816;2023-02-28T04:04:37;6.00;57.90
64888;DHT22;51386;53.082;8.816;2023-02-28T04:07:07;5.90;58.20
64888;DHT22;51386;53.082;8.816;2023-02-28T04:09:35;5.90;58.30
64888;DHT22;51386;53.082;8.816;2023-02-28T04:12:02;5.90;58.00
64888;DHT22;51386;53.082;8.816;2023-02-28T04:14:30;5.90;57.90
64888;DHT22;51386;53.082;8.816;2023-02-28T04:16:57;5.80;58.10
64888;DHT22;51386;53.082;8.816;2023-02-28T04:19:24;5.80;58.10
64888;DHT22;51386;53.082;8.816;2023-02-28T04:21:52;5.80;58.70
64888;DHT22;51386;53.082;8.816;2023-02-28T04:24:23;5.80;59.00
64888;DHT22;51386;53.082;8.816;2023-02-28T04:26:52;5.80;59.00
64888;DHT22;51386;53.082;8.816;2023-02-28T04:29:23;5.80;59.30
64888;DHT22;51386;53.082;8.816;2023-02-28T04:31:52;5.80;58.90
64888;DHT22;51386;53.082;8.816;2023-02-28T04:34:20;5.80;58.60
64888;DHT22;51386;53.082;8.816;2023-02-28T04:36:48;5.80;59.30
64888;DHT22;51386;53.082;8.816;2023-02-28T04:39:40;5.80;59.10
64888;DHT22;51386;53.082;8.816;2023-02-28T04:42:08;5.80;59.30
64888;DHT22;51386;53.082;8.816;2023-02-28T04:44:35;5.80;59.10
64888;DHT22;51386;53.082;8.816;2023-02-28T04:47:02;5.80;59.50
64888;DHT22;51386;53.082;8.816;2023-02-28T04:49:29;5.80;59.60
64888;DHT22;51386;53.082;8.816;2023-02-28T04:51:56;5.90;59.70
64888;DHT22;51386;53.082;8.816;2023-02-28T04:54:23;5.90;59.50
64888;DHT22;51386;53.082;8.816;2023-02-28T04:56:51;5.90;59.10
64888;DHT22;51386;53.082;8.816;2023-02-28T04:59:18;5.90;59.00
64888;DHT22;51386;53.082;8.816;2023-02-28T05:01:46;6.00;59.00
64888;DHT22;51386;53.082;8.816;2023-02-28T05:04:14;6.00;59.10
64888;DHT22;51386;53.082;8.816;2023-02-28T05:06:42;6.00;59.10
64888;DHT22;51386;53.082;8.816;2023-02-28T05:09:09;6.00;59.10
64888;DHT22;51386;53.082;8.816;2023-02-28T05:11:38;6.00;58.90
64888;DHT22;51386;53.082;8.816;2023-02-28T05:14:10;5.90;58.90
64888;DHT22;51386;53.082;8.816;2023-02-28T05:16:38;5.90;59.10
64888;DHT22;51386;53.082;8.816;2023-02-28T05:19:06;6.00;59.40
64888;DHT22;51386;53.082;8.816;2023-02-28T05:21:34;5.90;59.00
64888;DHT22;51386;53.082;8.816;2023-02-28T05:24:04;6.00;59.20
64888;DHT22;51386;53.082;8.816;2023-02-28T05:26:34;5.90;59.20
64888;DHT22;51386;53.082;8.816;2023-02-28T05:29:02;5.90;59.20
64888;DHT22;51386;53.082;8.816;2023-02-28T05:31:30;5.80;59.50
64888;DHT22;51386;53.082;8.816;2023-02-28T05:33:58;5.80;60.10
64888;DHT22;51386;53.082;8.816;2023-02-28T05:36:26;5.80;59.80
64888;DHT22;51386;53.082;8.816;2023-02-28T05:38:53;5.70;59.40
64888;DHT22;51386;53.082;8.816;2023-02-28T05:41:20;5.70;59.80
64888;DHT22;51386;53.082;8.816;2023-02-28T05:43:48;5.70;60.10
64888;DHT22;51386;53.082;8.816;2023-02-28T05:46:16;5.60;60.40
64888;DHT22;51386;53.082;8.816;2023-02-28T05:48:46;5.60;60.70
64888;DHT22;51386;53.082;8.816;2023-02-28T05:51:15;5.60;60.80
64888;DHT22;51386;53.082;8.816;2023-02-28T05:53:42;5.50;60.80
64888;DHT22;51386;53.082;8.816;2023-02-28T05:56:09;5.50;60.60
64888;DHT22;51386;53.082;8.816;2023-02-28T05:58:36;5.50;60.40
64888;DHT22;51386;53.082;8.816;2023-02-28T06:01:20;5.40;60.60
64888;DHT22;51386;53.082;8.816;2023-02-28T06:03:50;5.40;61.30
64888;DHT22;51386;53.082;8.816;2023-02-28T06:06:19;5.30;60.90
64888;DHT22;51386;53.082;8.816;2023-02-28T06:08:46;5.30;60.60
64888;DHT22;51386;53.082;8.816;2023-02-28T06:11:13;5.20;60.50
64888;DHT22;51386;53.082;8.816;2023-02-28T06:13:40;5.10;60.70
64888;DHT22;51386;53.082;8.816;2023-02-28T06:16:09;5.00;60.80
64888;DHT22;51386;53.082;8.816;2023-02-28T06:18:37;4.90;62.10
64888;DHT22;51386;53.082;8.816;2023-02-28T06:21:06;4.70;61.60
64888;DHT22;51386;53.082;8.816;2023-02-28T06:23:33;4.60;62.30
64888;DHT22;51386;53.082;8.816;2023-02-28T06:26:00;4.50;62.80
64888;DHT22;51386;53.082;8.816;2023-02-28T06:28:27;4.30;63.00
64888;DHT22;51386;53.082;8.816;2023-02-28T06:30:54;4.20;63.90
64888;DHT22;51386;53.082;8.816;2023-02-28T06:33:21;4.20;65.00
64888;DHT22;51386;53.082;8.816;2023-02-28T06:35:50;4.20;65.00
64888;DHT22;51386;53.082;8.816;2023-02-28T06:38:20;4.20;65.20
64888;DHT22;51386;53.082;8.816;2023-02-28T06:40:53;4.20;64.80
64888;DHT22;51386;53.082;8.816;2023-02-28T06:43:20;4.20;64.80
64888;DHT22;51386;53.082;8.816;2023-02-28T06:45:47;4.20;65.00
64888;DHT22;51386;53.082;8.816;2023-02-28T06:48:15;4.20;65.00
64888;DHT22;51386;53.082;8.816;2023-02-28T06:50:42;4.20;65.40
64888;DHT22;51386;53.082;8.816;2023-02-28T06:53:09;4.30;65.50
64888;DHT22;51386;53.082;8.816;2023-02-28T06:55:39;4.20;65.20
64888;DHT22;51386;53.082;8.816;2023-02-28T06:58:06;4.30;65.60
64888;DHT22;51386;53.082;8.816;2023-02-28T07:00:41;4.30;65.80
64888;DHT22;51386;53.082;8.816;2023-02-28T07:03:09;4.30;65.50
64888;DHT22;51386;53.082;8.816;2023-02-28T07:05:36;4.40;65.70
64888;DHT22;51386;53.082;8.816;2023-02-28T07:08:04;4.40;65.50
64888;DHT22;51386;53.082;8.816;2023-02-28T07:10:37;4.50;65.50
64888;DHT22;51386;53.082;8.816;2023-02-28T07:13:06;4.50;65.50
64888;DHT22;51386;53.082;8.816;2023-02-28T07:15:35;4.60;65.80
64888;DHT22;51386;53.082;8.816;2023-02-28T07:18:06;4.60;65.40
64888;DHT22;51386;53.082;8.816;2023-02-28T07:20:33;4.70;65.20
64888;DHT22;51386;53.082;8.816;2023-02-28T07:23:00;4.80;65.10
64888;DHT22;51386;53.082;8.816;2023-02-28T07:25:28;4.90;65.00
64888;DHT22;51386;53.082;8.816;2023-02-28T07:27:57;4.90;65.00
64888;DHT22;51386;53.082;8.816;2023-02-28T07:30:25;5.00;65.50
64888;DHT22;51386;53.082;8.816;2023-02-28T07:32:52;5.20;65.50
64888;DHT22;51386;53.082;8.816;2023-02-28T07:35:21;5.40;65.00
64888;DHT22;51386;53.082;8.816;2023-02-28T07:37:48;5.60;64.10
64888;DHT22;51386;53.082;8.816;2023-02-28T07:40:15;5.80;63.90
64888;DHT22;51386;53.082;8.816;2023-02-28T07:42:44;6.00;63.00
64888;DHT22;51386;53.082;8.816;2023-02-28T07:45:13;6.20;61.10
64888;DHT22;51386;53.082;8.816;2023-02-28T07:47:41;6.40;60.20
64888;DHT22;51386;53.082;8.816;2023-02-28T07:50:10;6.80;60.20
64888;DHT22;51386;53.082;8.816;2023-02-28T07:52:40;7.10;58.90
64888;DHT22;51386;53.082;8.816;2023-02-28T07:55:09;7.40;58.70
64888;DHT22;51386;53.082;8.816;2023-02-28T07:57:36;7.70;58.00
64888;DHT22;51386;53.082;8.816;2023-02-28T08:00:05;7.90;57.50
64888;DHT22;51386;53.082;8.816;2023-02-28T08:02:37;8.10;57.10
64888;DHT22;51386;53.082;8.816;2023-02-28T08:05:05;8.20;56.50
64888;DHT22;51386;53.082;8.816;2023-02-28T08:07:33;8.40;55.80
64888;DHT22;51386;53.082;8.816;2023-02-28T08:10:00;8.50;55.40
64888;DHT22;51386;53.082;8.816;2023-02-28T08:12:27;8.60;54.10
64888;DHT22;51386;53.082;8.816;2023-02-28T08:14:54;8.60;54.00
64888;DHT22;51386;53.082;8.816;2023-02-28T08:17:21;8.70;54.40
64888;DHT22;51386;53.082;8.816;2023-02-28T08:19:50;8.90;53.40
64888;DHT22;51386;53.082;8.816;2023-02-28T08:22:17;9.20;53.80
64888;DHT22;51386;53.082;8.816;2023-02-28T08:24:44;9.50;54.10
64888;DHT22;51386;53.082;8.816;2023-02-28T08:27:12;9.80;52.60
64888;DHT22;51386;53.082;8.816;2023-02-28T08:29:39;10.20;50.80
64888;DHT22;51386;53.082;8.816;2023-02-28T08:32:07;10.50;50.10
64888;DHT22;51386;53.082;8.816;2023-02-28T08:34:46;10.80;49.10
64888;DHT22;51386;53.082;8.816;2023-02-28T08:37:15;11.10;47.60
64888;DHT22;51386;53.082;8.816;2023-02-28T08:39:42;11.30;45.80
64888;DHT22;51386;53.082;8.816;2023-02-28T08:42:09;11.40;44.50
64888;DHT22;51386;53.082;8.816;2023-02-28T08:44:36;11.50;44.30
64888;DHT22;51386;53.082;8.816;2023-02-28T08:47:05;11.50;44.00
64888;DHT22;51386;53.082;8.816;2023-02-28T08:49:32;11.40;42.00
64888;DHT22;51386;53.082;8.816;2023-02-28T08:52:00;11.30;42.90
64888;DHT22;51386;53.082;8.816;2023-02-28T08:54:28;11.20;43.20
64888;DHT22;51386;53.082;8.816;2023-02-28T08:56:58;11.20;43.80
64888;DHT22;51386;53.082;8.816;2023-02-28T08:59:25;11.20;42.10
64888;DHT22;51386;53.082;8.816;2023-02-28T09:01:52;11.40;42.60
64888;DHT22;51386;53.082;8.816;2023-02-28T09:04:19;11.70;42.60
64888;DHT22;51386;53.082;8.816;2023-02-28T09:06:50;12.00;42.90
64888;DHT22;51386;53.082;8.816;2023-02-28T09:09:17;12.40;40.80
64888;DHT22;51386;53.082;8.816;2023-02-28T09:11:45;13.00;40.60
64888;DHT22;51386;53.082;8.816;2023-02-28T09:14:12;13.60;39.50
64888;DHT22;51386;53.082;8.816;2023-02-28T09:16:39;14.30;37.50
64888;DHT22;51386;53.082;8.816;2023-02-28T09:19:10;14.90;35.30
64888;DHT22;51386;53.082;8.816;2023-02-28T09:21:37;15.70;35.00
64888;DHT22;51386;53.082;8.816;2023-02-28T09:24:05;16.30;32.40
64888;DHT22;51386;53.082;8.816;2023-02-28T09:26:32;16.90;30.50
64888;DHT22;51386;53.082;8.816;2023-02-28T09:29:10;17.50;31.00
64888;DHT22;51386;53.082;8.816;2023-02-28T09:31:38;18.10;29.30
64888;DHT22;51386;53.082;8.816;2023-02-28T09:34:05;18.60;28.30
64888;DHT22;51386;53.082;8.816;2023-02-28T09:36:32;19.10;27.80
64888;DHT22;51386;53.082;8.816;2023-02-28T09:39:09;19.50;26.40
64888;DHT22;51386;53.082;8.816;2023-02-28T09:41:38;19.70;26.00
64888;DHT22;51386;53.082;8.816;2023-02-28T09:44:19;20.00;25.60
64888;DHT22;51386;53.082;8.816;2023-02-28T09:46:57;20.40;24.70
64888;DHT22;51386;53.082;8.816;2023-02-28T09:49:33;20.70;23.40
64888;DHT22;51386;53.082;8.816;2023-02-28T09:52:09;21.00;24.20
64888;DHT22;51386;53.082;8.816;2023-02-28T09:54:39;21.20;23.40
64888;DHT22;51386;53.082;8.816;2023-02-28T09:57:13;21.40;22.70
64888;DHT22;51386;53.082;8.816;2023-02-28T09:59:54;21.60;22.90
64888;DHT22;51386;53.082;8.816;2023-02-28T10:02:48;21.90;23.40
64888;DHT22;51386;53.082;8.816;2023-02-28T10:05:27;22.10;22.00
64888;DHT22;51386;53.082;8.816;2023-02-28T10:08:05;22.20;21.10
64888;DHT22;51386;53.082;8.816;2023-02-28T10:10:39;22.30;21.80
64888;DHT22;51386;53.082;8.816;2023-02-28T10:13:17;22.30;21.20
64888;DHT22;51386;53.082;8.816;2023-02-28T10:15:54;22.40;21.40
64888;DHT22;51386;53.082;8.816;2023-02-28T10:18:28;22.50;21.10
64888;DHT22;51386;53.082;8.816;2023-02-28T10:21:01;22.50;20.80
64888;DHT22;51386;53.082;8.816;2023-02-28T10:23:34;22.50;20.20
64888;DHT22;51386;53.082;8.816;2023-02-28T10:26:11;22.50;20.80
64888;DHT22;51386;53.082;8.816;2023-02-28T10:28:39;22.50;20.60
64888;DHT22;51386;53.082;8.816;2023-02-28T10:31:12;22.40;20.50
64888;DHT22;51386;53.082;8.816;2023-02-28T10:33:43;22.40;20.70
64888;DHT22;51386;53.082;8.816;2023-02-28T10:36:14;22.50;20.80
64888;DHT22;51386;53.082;8.816;2023-02-28T10:38:44;22.30;19.50
64888;DHT22;51386;53.082;8.816;2023-02-28T10:41:14;22.40;20.20
64888;DHT22;51386;53.082;8.816;2023-02-28T10:43:43;22.50;20.60
64888;DHT22;51386;53.082;8.816;2023-02-28T10:46:17;22.40;20.40
64888;DHT22;51386;53.082;8.816;2023-02-28T10:49:02;22.10;20.10
64888;DHT22;51386;53.082;8.816;2023-02-28T10:51:37;21.80;20.50
64888;DHT22;51386;53.082;8.816;2023-02-28T10:54:15;21.40;20.60
64888;DHT22;51386;53.082;8.816;2023-02-28T10:56:44;21.00;20.40
64888;DHT22;51386;53.082;8.816;2023-02-28T10:59:28;20.70;21.30
64888;DHT22;51386;53.082;8.816;2023-02-28T11:01:57;20.50;21.30
64888;DHT22;51386;53.082;8.816;2023-02-28T11:04:35;20.20;21.60
64888;DHT22;51386;53.082;8.816;2023-02-28T11:07:06;20.00;21.80
64888;DHT22;51386;53.082;8.816;2023-02-28T11:09:46;19.80;22.00
64888;DHT22;51386;53.082;8.816;2023-02-28T11:12:22;19.60;22.20
64888;DHT22;51386;53.082;8.816;2023-02-28T11:14:56;19.40;22.70
64888;DHT22;51386;53.082;8.816;2023-02-28T11:17:30;19.30;22.70
64888;DHT22;51386;53.082;8.816;2023-02-28T11:20:00;19.20;22.70
64888;DHT22;51386;53.082;8.816;2023-02-28T11:22:32;19.10;22.70
64888;DHT22;51386;53.082;8.816;2023-02-28T11:25:09;19.00;22.70
64888;DHT22;51386;53.082;8.816;2023-02-28T11:27:47;18.90;22.90
64888;DHT22;51386;53.082;8.816;2023-02-28T11:30:36;18.70;23.30
64888;DHT22;51386;53.082;8.816;2023-02-28T11:33:26;18.50;23.30
64888;DHT22;51386;53.082;8.816;2023-02-28T11:35:58;18.30;23.50
64888;DHT22;51386;53.082;8.816;2023-02-28T11:38:28;18.10;23.80
64888;DHT22;51386;53.082;8.816;2023-02-28T11:41:11;17.90;23.90
64888;DHT22;51386;53.082;8.816;2023-02-28T11:43:58;17.80;23.80
64888;DHT22;51386;53.082;8.816;2023-02-28T11:46:38;17.70;23.90
64888;DHT22;51386;53.082;8.816;2023-02-28T11:49:26;17.60;24.30
64888;DHT22;51386;53.082;8.816;2023-02-28T11:52:01;17.70;24.20
64888;DHT22;51386;53.082;8.816;2023-02-28T11:54:59;17.70;24.10
64888;DHT22;51386;53.082;8.816;2023-02-28T11:57:52;17.70;23.70
64888;DHT22;51386;53.082;8.816;2023-02-28T12:00:42;17.70;24.10
64888;DHT22;51386;53.082;8.816;2023-02-28T12:03:27;17.60;23.60
64888;DHT22;51386;53.082;8.816;2023-02-28T12:06:12;17.60;23.70
64888;DHT22;51386;53.082;8.816;2023-02-28T12:08:49;17.50;23.70
64888;DHT22;51386;53.082;8.816;2023-02-28T12:11:34;17.40;24.30
64888;DHT22;51386;53.082;8.816;2023-02-28T12:14:30;17.30;24.30
64888;DHT22;51386;53.082;8.816;2023-02-28T12:20:22;17.30;24.90
64888;DHT22;51386;53.082;8.816;2023-02-28T12:23:10;17.40;24.80
64888;DHT22;51386;53.082;8.816;2023-02-28T12:26:01;17.40;24.70
64888;DHT22;51386;53.082;8.816;2023-02-28T12:28:39;17.50;24.60
64888;DHT22;51386;53.082;8.816;2023-02-28T12:31:13;17.40;24.10
64888;DHT22;51386;53.082;8.816;2023-02-28T12:33:50;17.20;24.30
64888;DHT22;51386;53.082;8.816;2023-02-28T12:36:20;16.90;24.10
64888;DHT22;51386;53.082;8.816;2023-02-28T12:38:55;16.80;24.50
64888;DHT22;51386;53.082;8.816;2023-02-28T12:41:31;16.70;24.40
64888;DHT22;51386;53.082;8.816;2023-02-28T12:44:07;16.60;24.70
64888;DHT22;51386;53.082;8.816;2023-02-28T12:46:41;16.60;24.80
64888;DHT22;51386;53.082;8.816;2023-02-28T12:49:15;16.60;24.90
64888;DHT22;51386;53.082;8.816;2023-02-28T12:51:46;16.60;25.10
64888;DHT22;51386;53.082;8.816;2023-02-28T12:54:21;16.60;25.00
64888;DHT22;51386;53.082;8.816;2023-02-28T12:56:58;16.70;25.10
64888;DHT22;51386;53.082;8.816;2023-02-28T12:59:35;16.70;24.70
64888;DHT22;51386;53.082;8.816;2023-02-28T13:02:33;16.70;24.30
64888;DHT22;51386;53.082;8.816;2023-02-28T13:05:27;16.70;24.60
64888;DHT22;51386;53.082;8.816;2023-02-28T13:08:22;16.70;24.00
64888;DHT22;51386;53.082;8.816;2023-02-28T13:11:07;16.80;22.80
64888;DHT22;51386;53.082;8.816;2023-02-28T13:13:46;16.70;22.50
64888;DHT22;51386;53.082;8.816;2023-02-28T13:16:14;16.80;23.00
64888;DHT22;51386;53.082;8.816;2023-02-28T13:18:44;16.80;23.40
64888;DHT22;51386;53.082;8.816;2023-02-28T13:21:23;17.00;23.60
64888;DHT22;51386;53.082;8.816;2023-02-28T13:23:59;17.20;23.70
64888;DHT22;51386;53.082;8.816;2023-02-28T13:29:52;17.60;23.00
64888;DHT22;51386;53.082;8.816;2023-02-28T13:38:36;18.10;22.90
64888;DHT22;51386;53.082;8.816;2023-02-28T13:41:43;18.10;22.30
64888;DHT22;51386;53.082;8.816;2023-02-28T13:44:15;17.90;22.60
64888;DHT22;51386;53.082;8.816;2023-02-28T13:50:14;17.90;22.70
64888;DHT22;51386;53.082;8.816;2023-02-28T13:52:55;17.70;23.20
64888;DHT22;51386;53.082;8.816;2023-02-28T13:55:37;17.40;22.60
64888;DHT22;51386;53.082;8.816;2023-02-28T13:58:20;17.30;23.30
64888;DHT22;51386;53.082;8.816;2023-02-28T14:01:12;17.30;23.70
64888;DHT22;51386;53.082;8.816;2023-02-28T14:04:22;17.50;23.50
64888;DHT22;51386;53.082;8.816;2023-02-28T14:07:08;17.80;23.40
64888;DHT22;51386;53.082;8.816;2023-02-28T14:09:47;18.00;22.80
64888;DHT22;51386;53.082;8.816;2023-02-28T14:12:56;18.20;23.00
64888;DHT22;51386;53.082;8.816;2023-02-28T14:15:35;18.40;22.90
64888;DHT22;51386;53.082;8.816;2023-02-28T14:18:17;18.60;22.60
64888;DHT22;51386;53.082;8.816;2023-02-28T14:20:54;18.80;22.50
64888;DHT22;51386;53.082;8.816;2023-02-28T14:23:47;19.10;22.30
64888;DHT22;51386;53.082;8.816;2023-02-28T14:27:13;19.30;22.00
64888;DHT22;51386;53.082;8.816;2023-02-28T14:30:20;19.60;21.60
64888;DHT22;51386;53.082;8.816;2023-02-28T14:33:31;19.40;20.60
64888;DHT22;51386;53.082;8.816;2023-02-28T14:36:14;19.00;20.90
64888;DHT22;51386;53.082;8.816;2023-02-28T14:38:51;18.80;21.10
64888;DHT22;51386;53.082;8.816;2023-02-28T14:41:22;18.80;21.00
64888;DHT22;51386;53.082;8.816;2023-02-28T14:43:55;18.80;21.40
64888;DHT22;51386;53.082;8.816;2023-02-28T14:46:27;18.80;21.40
64888;DHT22;51386;53.082;8.816;2023-02-28T14:49:03;18.80;21.30
64888;DHT22;51386;53.082;8.816;2023-02-28T14:51:33;18.50;21.10
64888;DHT22;51386;53.082;8.816;2023-02-28T14:54:01;18.10;21.50
64888;DHT22;51386;53.082;8.816;2023-02-28T14:56:37;17.60;22.00
64888;DHT22;51386;53.082;8.816;2023-02-28T14:59:18;17.30;22.80
64888;DHT22;51386;53.082;8.816;2023-02-28T15:04:54;17.00;23.70
64888;DHT22;51386;53.082;8.816;2023-02-28T15:07:23;16.80;23.70
64888;DHT22;51386;53.082;8.816;2023-02-28T15:10:08;16.40;23.50
64888;DHT22;51386;53.082;8.816;2023-02-28T15:12:37;15.90;23.90
64888;DHT22;51386;53.082;8.816;2023-02-28T15:15:13;15.50;24.30
64888;DHT22;51386;53.082;8.816;2023-02-28T15:17:43;15.00;24.70
64888;DHT22;51386;53.082;8.816;2023-02-28T15:20:16;14.60;25.00
64888;DHT22;51386;53.082;8.816;2023-02-28T15:22:46;14.20;25.40
64888;DHT22;51386;53.082;8.816;2023-02-28T15:25:19;13.80;25.70
64888;DHT22;51386;53.082;8.816;2023-02-28T15:27:50;13.50;26.10
64888;DHT22;51386;53.082;8.816;2023-02-28T15:30:21;13.20;26.30
64888;DHT22;51386;53.082;8.816;2023-02-28T15:33:16;13.00;26.40
64888;DHT22;51386;53.082;8.816;2023-02-28T15:35:50;12.70;27.00
64888;DHT22;51386;53.082;8.816;2023-02-28T15:38:22;12.50;27.10
64888;DHT22;51386;53.082;8.816;2023-02-28T15:40:52;12.40;27.20
64888;DHT22;51386;53.082;8.816;2023-02-28T15:43:26;12.20;27.40
64888;DHT22;51386;53.082;8.816;2023-02-28T15:45:57;12.10;27.70
64888;DHT22;51386;53.082;8.816;2023-02-28T15:48:28;11.90;27.80
64888;DHT22;51386;53.082;8.816;2023-02-28T15:51:02;11.80;28.20
64888;DHT22;51386;53.082;8.816;2023-02-28T15:53:37;11.70;28.40
64888;DHT22;51386;53.082;8.816;2023-02-28T15:56:22;11.60;28.70
64888;DHT22;51386;53.082;8.816;2023-02-28T15:58:53;11.40;28.90
64888;DHT22;51386;53.082;8.816;2023-02-28T16:01:25;11.40;29.20
64888;DHT22;51386;53.082;8.816;2023-02-28T16:03:57;11.30;29.40
64888;DHT22;51386;53.082;8.816;2023-02-28T16:06:37;11.20;29.60
64888;DHT22;51386;53.082;8.816;2023-02-28T16:09:09;11.10;29.70
64888;DHT22;51386;53.082;8.816;2023-02-28T16:11:43;11.00;30.00
64888;DHT22;51386;53.082;8.816;2023-02-28T16:14:17;11.00;30.00
64888;DHT22;51386;53.082;8.816;2023-02-28T16:16:48;10.90;30.00
64888;DHT22;51386;53.082;8.816;2023-02-28T16:19:16;10.80;30.10
64888;DHT22;51386;53.082;8.816;2023-02-28T16:21:45;10.70;30.50
64888;DHT22;51386;53.082;8.816;2023-02-28T16:24:13;10.70;30.60
64888;DHT22;51386;53.082;8.816;2023-02-28T16:26:42;10.60;30.80
64888;DHT22;51386;53.082;8.816;2023-02-28T16:29:14;10.60;31.20
64888;DHT22;51386;53.082;8.816;2023-02-28T16:31:44;10.60;31.60
64888;DHT22;51386;53.082;8.816;2023-02-28T16:34:10;10.50;31.70
64888;DHT22;51386;53.082;8.816;2023-02-28T16:36:37;10.50;32.00
64888;DHT22;51386;53.082;8.816;2023-02-28T16:39:06;10.50;32.20
64888;DHT22;51386;53.082;8.816;2023-02-28T16:41:34;10.50;32.50